Time;durP1;ratioP1;P1;durP2;ratioP2;P2;SDS_P1;SDS_P2;PMS_P1;PMS_P2;Temp;Humidity;BMP_temperature;BMP_pressure;BME280_temperature;BME280_humidity;BME280_pressure;Samples;Min_cycle;Max_cycle;Signal;HPM_P1;HPM_P2
2021/05/24 00:02:16;;;;;;;3.50;3.20;;;6.50;99.90;;;;;;5029418;28;20501;-77
2021/05/24 00:04:42;;;;;;;4.37;3.17;;;6.50;99.90;;;;;;5022923;28;20246;-77
2021/05/24 00:07:07;;;;;;;3.13;2.30;;;6.40;99.90;;;;;;5014610;28;20453;-76
2021/05/24 00:09:33;;;;;;;4.97;2.70;;;6.50;99.90;;;;;;4992176;28;20445;-78
2021/05/24 00:12:02;;;;;;;3.23;2.83;;;6.40;99.90;;;;;;4991951;28;20275;-77
2021/05/24 00:14:28;;;;;;;3.13;2.63;;;6.40;99.90;;;;;;5010714;28;20423;-77
2021/05/24 00:16:54;;;;;;;6.00;3.30;;;6.40;99.90;;;;;;5013302;28;20434;-76
2021/05/24 00:19:19;;;;;;;3.93;3.03;;;6.40;99.90;;;;;;5014902;28;20417;-77
2021/05/24 00:21:45;;;;;;;4.53;3.43;;;6.30;99.90;;;;;;5014988;28;20185;-76
2021/05/24 00:24:10;;;;;;;4.33;3.27;;;6.30;99.90;;;;;;5014670;28;20171;-77
2021/05/24 00:26:36;;;;;;;4.57;3.10;;;6.30;99.90;;;;;;5014602;28;20203;-77
2021/05/24 00:29:03;;;;;;;3.20;2.73;;;6.30;99.90;;;;;;4997275;28;20554;-77
2021/05/24 00:31:28;;;;;;;3.17;2.67;;;6.30;99.90;;;;;;4997438;28;20476;-79
2021/05/24 00:33:54;;;;;;;3.77;2.70;;;6.20;99.90;;;;;;5014498;28;20409;-76
2021/05/24 00:36:19;;;;;;;3.77;3.20;;;6.20;99.90;;;;;;5014466;28;20206;-77
2021/05/24 00:38:45;;;;;;;2.60;2.17;;;6.20;99.90;;;;;;4996978;28;20264;-77
2021/05/24 00:41:11;;;;;;;7.00;3.10;;;6.20;99.90;;;;;;5014892;28;20178;-79
2021/05/24 00:43:36;;;;;;;4.03;2.70;;;6.20;99.90;;;;;;4996665;28;20186;-77
2021/05/24 00:46:02;;;;;;;5.50;2.90;;;6.10;99.90;;;;;;4996771;28;20213;-76
2021/05/24 00:48:28;;;;;;;2.77;2.57;;;6.10;99.90;;;;;;5014314;28;20176;-77
2021/05/24 00:50:53;;;;;;;3.53;2.70;;;6.10;99.90;;;;;;5014813;28;20431;-79
2021/05/24 00:53:19;;;;;;;3.27;2.60;;;6.10;99.90;;;;;;4996492;28;20622;-76
2021/05/24 00:55:44;;;;;;;2.87;2.63;;;6.10;99.90;;;;;;5013037;28;20199;-76
2021/05/24 00:58:10;;;;;;;2.77;2.57;;;6.00;99.90;;;;;;5013431;28;20194;-77
2021/05/24 01:00:44;;;;;;;3.97;2.60;;;6.00;99.90;;;;;;5014125;28;20190;-76
2021/05/24 01:03:11;;;;;;;8.57;3.10;;;6.00;99.90;;;;;;4996201;28;20174;-76
2021/05/24 01:05:38;;;;;;;3.07;2.83;;;6.00;99.90;;;;;;5014093;28;20547;-76
2021/05/24 01:08:04;;;;;;;2.93;2.73;;;6.00;99.90;;;;;;5013644;28;20491;-76
2021/05/24 01:10:31;;;;;;;4.70;2.80;;;6.00;99.90;;;;;;4996483;28;20423;-77
2021/05/24 01:12:59;;;;;;;9.43;2.90;;;6.00;99.90;;;;;;5013876;28;20500;-76
2021/05/24 01:15:24;;;;;;;4.47;2.50;;;6.00;99.90;;;;;;5014009;28;20458;-76
2021/05/24 01:17:50;;;;;;;5.40;2.13;;;6.00;99.90;;;;;;5013918;28;20474;-76
2021/05/24 01:20:16;;;;;;;4.60;2.77;;;6.00;99.90;;;;;;5013828;28;20186;-76
2021/05/24 01:22:55;;;;;;;5.10;2.50;;;6.00;99.90;;;;;;5013898;28;20179;-74
2021/05/24 01:25:21;;;;;;;2.50;2.30;;;6.00;99.90;;;;;;5012973;28;20452;-76
2021/05/24 01:27:46;;;;;;;4.17;3.00;;;6.00;99.90;;;;;;4995734;28;20445;-76
2021/05/24 01:30:14;;;;;;;5.30;3.07;;;6.00;99.90;;;;;;5013787;28;20174;-80
2021/05/24 01:32:40;;;;;;;2.70;2.50;;;6.10;99.90;;;;;;5013789;28;20175;-76
2021/05/24 01:35:06;;;;;;;5.27;4.43;;;6.00;99.90;;;;;;5013810;28;20395;-75
2021/05/24 01:37:32;;;;;;;4.70;2.83;;;6.00;99.90;;;;;;5013468;28;20796;-80
2021/05/24 01:40:02;;;;;;;3.87;2.70;;;6.10;99.90;;;;;;5013580;28;20384;-75
2021/05/24 01:42:27;;;;;;;3.70;3.10;;;6.00;99.90;;;;;;5013374;28;20167;-76
2021/05/24 01:44:53;;;;;;;3.37;3.07;;;6.00;99.90;;;;;;5013109;28;20486;-76
2021/05/24 01:47:19;;;;;;;4.23;3.57;;;6.00;99.90;;;;;;5013489;28;20194;-76
2021/05/24 01:49:47;;;;;;;3.13;2.93;;;6.00;99.90;;;;;;5013512;28;20175;-76
2021/05/24 01:52:14;;;;;;;6.50;3.13;;;6.00;99.90;;;;;;5013485;28;20177;-76
2021/05/24 01:54:41;;;;;;;2.97;2.67;;;6.00;99.90;;;;;;5012566;28;20462;-77
2021/05/24 01:57:07;;;;;;;3.70;2.70;;;6.00;99.90;;;;;;5013091;28;20440;-76
2021/05/24 01:59:33;;;;;;;3.90;2.47;;;6.00;99.90;;;;;;5013010;28;20406;-77
2021/05/24 02:01:59;;;;;;;5.23;3.40;;;6.00;99.90;;;;;;5012965;28;20839;-77
2021/05/24 02:04:24;;;;;;;4.37;2.40;;;6.00;99.90;;;;;;5011403;28;20182;-77
2021/05/24 02:06:50;;;;;;;3.00;2.17;;;6.00;99.90;;;;;;5012863;28;20286;-79
2021/05/24 02:09:15;;;;;;;4.60;2.93;;;6.00;99.90;;;;;;5011916;28;20217;-76
2021/05/24 02:11:41;;;;;;;2.70;2.20;;;6.00;99.90;;;;;;5013637;28;20171;-76
2021/05/24 02:14:08;;;;;;;2.90;2.50;;;6.00;99.90;;;;;;5012677;28;20189;-77
2021/05/24 02:16:42;;;;;;;4.50;2.87;;;6.00;99.90;;;;;;5012803;28;20521;-76
2021/05/24 02:19:09;;;;;;;2.80;2.40;;;6.00;99.90;;;;;;5012816;28;20501;-76
2021/05/24 02:21:36;;;;;;;3.60;3.10;;;6.00;99.90;;;;;;5012557;28;20422;-79
2021/05/24 02:24:02;;;;;;;3.97;2.67;;;5.90;99.90;;;;;;5012517;28;20794;-76
2021/05/24 02:26:28;;;;;;;3.43;3.13;;;5.90;99.90;;;;;;5012352;28;20457;-76
2021/05/24 02:28:53;;;;;;;6.60;3.10;;;5.90;99.90;;;;;;5012314;28;20439;-77
2021/05/24 02:31:20;;;;;;;3.33;3.03;;;5.80;99.90;;;;;;5012472;28;20234;-76
2021/05/24 02:33:46;;;;;;;3.57;2.87;;;5.80;99.90;;;;;;5012026;28;20165;-75
2021/05/24 02:36:12;;;;;;;3.07;2.77;;;5.80;99.90;;;;;;5012396;28;20771;-77
2021/05/24 02:38:38;;;;;;;6.17;3.00;;;5.80;99.90;;;;;;5011183;28;20414;-76
2021/05/24 02:41:03;;;;;;;4.70;3.33;;;5.80;99.90;;;;;;5012581;28;20186;-76
2021/05/24 02:43:29;;;;;;;3.37;2.80;;;5.80;99.90;;;;;;5011942;28;20250;-76
2021/05/24 02:45:54;;;;;;;3.27;2.93;;;5.80;99.90;;;;;;4994578;28;20237;-78
2021/05/24 02:48:20;;;;;;;5.03;2.90;;;5.80;99.90;;;;;;5012513;28;20174;-76
2021/05/24 02:50:46;;;;;;;3.87;3.00;;;5.80;99.90;;;;;;5012031;28;20268;-76
2021/05/24 02:53:11;;;;;;;6.73;3.40;;;5.80;99.90;;;;;;5010856;28;20496;-76
2021/05/24 02:55:38;;;;;;;4.60;2.60;;;5.80;99.90;;;;;;5011938;28;20202;-77
2021/05/24 02:58:03;;;;;;;3.10;2.80;;;5.80;99.90;;;;;;5011851;28;20205;-79
2021/05/24 03:00:29;;;;;;;4.00;2.93;;;5.80;99.90;;;;;;5011773;28;20471;-76
2021/05/24 03:02:56;;;;;;;3.00;2.77;;;5.90;99.90;;;;;;5012050;28;20179;-76
2021/05/24 03:05:22;;;;;;;2.80;2.57;;;5.80;99.90;;;;;;5011730;28;20219;-76
2021/05/24 03:07:49;;;;;;;2.37;2.17;;;5.90;99.90;;;;;;5011959;28;20562;-76
2021/05/24 03:10:16;;;;;;;4.40;2.67;;;5.90;99.90;;;;;;5011550;28;20414;-76
2021/05/24 03:12:42;;;;;;;3.00;2.80;;;5.80;99.90;;;;;;5012012;28;20922;-74
2021/05/24 03:15:09;;;;;;;2.70;2.50;;;5.90;99.90;;;;;;4994169;28;20425;-76
2021/05/24 03:17:35;;;;;;;5.83;2.33;;;5.90;99.90;;;;;;4994244;28;20197;-76
2021/05/24 03:20:00;;;;;;;2.70;2.50;;;5.90;99.90;;;;;;5011657;28;20408;-79
2021/05/24 03:22:26;;;;;;;2.90;2.70;;;5.90;99.90;;;;;;5011292;28;20838;-76
2021/05/24 03:24:51;;;;;;;4.33;2.90;;;6.00;99.90;;;;;;5011531;28;20717;-76
2021/05/24 03:27:17;;;;;;;3.97;3.10;;;6.00;99.90;;;;;;5011721;28;20709;-78
2021/05/24 03:29:42;;;;;;;5.77;3.43;;;6.00;99.90;;;;;;5011718;28;20179;-76
2021/05/24 03:32:08;;;;;;;2.93;2.73;;;6.00;99.90;;;;;;5011853;28;20678;-77
2021/05/24 03:34:34;;;;;;;4.60;2.93;;;6.00;99.90;;;;;;5011556;28;20241;-77
2021/05/24 03:36:59;;;;;;;3.23;2.77;;;6.00;99.90;;;;;;5011823;28;20216;-76
2021/05/24 03:39:25;;;;;;;5.53;2.90;;;6.00;99.90;;;;;;5011457;28;20176;-76
2021/05/24 03:41:50;;;;;;;3.13;2.40;;;6.00;99.90;;;;;;5011670;28;20171;-76
2021/05/24 03:44:16;;;;;;;5.17;3.00;;;6.00;99.90;;;;;;5011342;28;20168;-75
2021/05/24 03:46:42;;;;;;;3.17;2.43;;;6.10;99.90;;;;;;5011318;28;20208;-79
2021/05/24 03:49:08;;;;;;;2.73;2.53;;;6.00;99.90;;;;;;4994041;28;20172;-77
2021/05/24 03:51:33;;;;;;;2.50;2.30;;;6.10;99.90;;;;;;5014953;28;20170;-76
2021/05/24 03:53:59;;;;;;;2.70;2.50;;;6.10;99.90;;;;;;5015217;28;20167;-76
2021/05/24 03:56:24;;;;;;;2.53;1.90;;;6.10;99.90;;;;;;5014975;28;20226;-78
2021/05/24 03:58:50;;;;;;;2.87;2.03;;;6.10;99.90;;;;;;4997746;28;20217;-76
2021/05/24 04:01:16;;;;;;;2.00;1.90;;;6.10;99.90;;;;;;4997768;28;20190;-77
2021/05/24 04:03:42;;;;;;;7.37;2.37;;;6.10;99.90;;;;;;5014978;28;20801;-77
2021/05/24 04:06:09;;;;;;;3.00;2.50;;;6.10;99.90;;;;;;5014994;28;20199;-80
2021/05/24 04:08:43;;;;;;;3.30;2.57;;;6.10;99.90;;;;;;4997471;28;20179;-75
2021/05/24 04:11:10;;;;;;;2.13;2.00;;;6.10;99.90;;;;;;5014450;28;20907;-76
2021/05/24 04:13:36;;;;;;;7.57;2.57;;;6.20;99.90;;;;;;5014768;28;20424;-76
2021/05/24 04:16:02;;;;;;;2.57;2.40;;;6.20;99.90;;;;;;5014935;28;20492;-75
2021/05/24 04:18:30;;;;;;;2.40;2.20;;;6.30;99.90;;;;;;5014613;28;20178;-74
2021/05/24 04:20:56;;;;;;;2.60;2.40;;;6.30;99.90;;;;;;5014958;28;20465;-75
2021/05/24 04:23:22;;;;;;;2.90;2.30;;;6.40;99.90;;;;;;5014286;28;20419;-76
2021/05/24 04:25:48;;;;;;;2.47;2.27;;;6.40;99.90;;;;;;4997289;28;20532;-75
2021/05/24 04:28:14;;;;;;;4.23;2.17;;;6.50;99.90;;;;;;5014307;28;20200;-75
2021/05/24 04:30:40;;;;;;;2.27;2.07;;;6.60;99.90;;;;;;5014632;28;20225;-75
2021/05/24 04:33:06;;;;;;;3.20;2.40;;;6.60;99.90;;;;;;5014598;28;20661;-74
2021/05/24 04:35:31;;;;;;;5.07;2.20;;;6.70;99.90;;;;;;5014287;28;20423;-74
2021/05/24 04:37:57;;;;;;;3.10;2.20;;;6.80;99.90;;;;;;5014467;28;20689;-75
2021/05/24 04:40:23;;;;;;;2.23;2.03;;;6.80;99.90;;;;;;5014342;28;20186;-74
2021/05/24 04:42:49;;;;;;;2.80;2.53;;;6.80;99.90;;;;;;5014272;28;20183;-74
2021/05/24 04:45:15;;;;;;;4.57;3.70;;;6.80;99.90;;;;;;5014102;28;20722;-75
2021/05/24 04:47:41;;;;;;;2.10;2.00;;;6.90;99.90;;;;;;5014402;28;20430;-74
2021/05/24 04:50:08;;;;;;;2.80;2.60;;;7.00;99.90;;;;;;5014357;28;20750;-75
2021/05/24 04:52:35;;;;;;;6.87;3.20;;;7.00;99.90;;;;;;5014150;28;20176;-75
2021/05/24 04:55:00;;;;;;;3.07;2.63;;;7.00;99.90;;;;;;5014067;28;20430;-74
2021/05/24 04:57:26;;;;;;;3.20;2.40;;;7.10;99.90;;;;;;4996450;28;20980;-74
2021/05/24 04:59:52;;;;;;;2.80;2.20;;;7.20;99.90;;;;;;5014292;28;20264;-75
2021/05/24 05:02:17;;;;;;;3.00;2.80;;;7.20;99.90;;;;;;4995548;28;20181;-73
2021/05/24 05:04:44;;;;;;;2.73;2.53;;;7.30;99.90;;;;;;5013819;28;20219;-73
2021/05/24 05:07:10;;;;;;;3.00;2.70;;;7.40;99.90;;;;;;5013995;28;20194;-73
2021/05/24 05:09:35;;;;;;;2.40;2.20;;;7.50;99.90;;;;;;5013880;28;20418;-74
2021/05/24 05:12:01;;;;;;;4.13;3.00;;;7.60;99.90;;;;;;5014118;28;20169;-73
2021/05/24 05:14:26;;;;;;;11.77;2.53;;;7.70;99.90;;;;;;5013592;28;20178;-73
2021/05/24 05:16:52;;;;;;;4.03;3.70;;;7.80;99.90;;;;;;5013869;28;20310;-73
2021/05/24 05:19:18;;;;;;;3.33;3.03;;;7.90;99.90;;;;;;4995965;28;20658;-73
2021/05/24 05:21:51;;;;;;;3.07;2.87;;;8.00;99.90;;;;;;5013730;28;20547;-73
2021/05/24 05:24:17;;;;;;;3.77;2.27;;;8.10;99.90;;;;;;5013423;28;20810;-73
2021/05/24 05:26:43;;;;;;;4.80;3.27;;;8.20;99.90;;;;;;4995745;28;20471;-73
2021/05/24 05:29:08;;;;;;;3.10;2.80;;;8.40;99.90;;;;;;5013661;28;20909;-74
2021/05/24 05:31:34;;;;;;;3.70;2.67;;;8.50;99.90;;;;;;5013312;28;20720;-73
2021/05/24 05:34:00;;;;;;;2.73;2.53;;;8.60;99.90;;;;;;4995830;28;20713;-73
2021/05/24 05:36:26;;;;;;;3.50;3.17;;;8.70;99.90;;;;;;5013188;28;20675;-73
2021/05/24 05:38:52;;;;;;;3.43;3.17;;;8.70;99.90;;;;;;5013456;28;20181;-74
2021/05/24 05:41:18;;;;;;;2.70;2.50;;;8.90;99.90;;;;;;5013079;28;20499;-74
2021/05/24 05:43:43;;;;;;;4.30;2.47;;;8.90;99.90;;;;;;5013027;28;20174;-73
2021/05/24 05:46:10;;;;;;;3.40;3.10;;;9.00;99.90;;;;;;5013012;28;20462;-73
2021/05/24 05:48:36;;;;;;;5.87;3.00;;;9.10;99.90;;;;;;5013087;28;20933;-74
2021/05/24 05:51:03;;;;;;;5.73;3.17;;;9.20;99.90;;;;;;4995480;28;20415;-74
2021/05/24 05:53:28;;;;;;;4.50;3.20;;;9.30;99.90;;;;;;5012743;28;20407;-74
2021/05/24 05:55:54;;;;;;;3.03;2.73;;;9.30;99.90;;;;;;5012994;28;20809;-74
2021/05/24 05:58:20;;;;;;;5.33;2.57;;;9.30;99.90;;;;;;5012707;28;20232;-74
2021/05/24 06:00:45;;;;;;;3.20;3.00;;;9.40;99.90;;;;;;5013070;28;20192;-74
2021/05/24 06:03:12;;;;;;;3.83;2.70;;;9.50;99.90;;;;;;4995066;28;20928;-74
2021/05/24 06:05:38;;;;;;;4.00;3.67;;;9.60;99.90;;;;;;5012768;28;20535;-73
2021/05/24 06:08:04;;;;;;;2.80;2.60;;;9.70;99.90;;;;;;5012855;28;20459;-73
2021/05/24 06:10:31;;;;;;;3.00;2.70;;;9.90;99.90;;;;;;4994990;28;20172;-73
2021/05/24 06:12:56;;;;;;;3.67;3.13;;;10.00;99.90;;;;;;5012570;28;20420;-73
2021/05/24 06:15:22;;;;;;;2.77;2.47;;;10.10;99.90;;;;;;5012421;28;20826;-74
2021/05/24 06:17:47;;;;;;;3.10;2.90;;;10.10;99.90;;;;;;5012567;28;20204;-73
2021/05/24 06:20:13;;;;;;;6.70;2.70;;;10.30;99.90;;;;;;5012374;28;20257;-74
2021/05/24 06:22:39;;;;;;;4.07;2.90;;;10.40;99.90;;;;;;4994891;28;20645;-74
2021/05/24 06:25:07;;;;;;;14.33;3.50;;;10.60;99.90;;;;;;5012307;28;20452;-74
2021/05/24 06:27:33;;;;;;;2.67;2.30;;;10.80;99.90;;;;;;4978382;28;20437;-74
2021/05/24 06:29:59;;;;;;;2.07;1.87;;;11.00;99.90;;;;;;4994876;28;20837;-74
2021/05/24 06:32:25;;;;;;;3.37;2.07;;;11.20;99.90;;;;;;5012271;28;20441;-74
2021/05/24 06:34:50;;;;;;;1.90;1.77;;;11.40;99.90;;;;;;5012018;28;20178;-74
2021/05/24 06:37:16;;;;;;;2.17;1.97;;;11.50;99.90;;;;;;5012210;28;20221;-74
2021/05/24 06:39:42;;;;;;;2.70;1.70;;;11.70;99.90;;;;;;5012124;28;20185;-74
2021/05/24 06:42:08;;;;;;;1.90;1.70;;;11.70;99.90;;;;;;5012226;28;20182;-74
2021/05/24 06:44:33;;;;;;;2.77;1.90;;;11.80;99.90;;;;;;5011780;28;20231;-75
2021/05/24 06:46:59;;;;;;;3.07;1.37;;;11.90;99.90;;;;;;4994404;28;20211;-75
2021/05/24 06:49:24;;;;;;;2.07;1.57;;;12.10;99.90;;;;;;5011808;28;20320;-74
2021/05/24 06:51:50;;;;;;;1.93;1.73;;;12.30;99.90;;;;;;4994541;28;20186;-74
2021/05/24 06:54:16;;;;;;;4.70;1.60;;;12.40;99.90;;;;;;5011446;28;20644;-74
2021/05/24 06:56:42;;;;;;;2.50;1.97;;;12.60;99.90;;;;;;5011883;28;20441;-74
2021/05/24 06:59:07;;;;;;;1.90;1.60;;;12.70;99.90;;;;;;4994292;28;20425;-74
2021/05/24 07:01:33;;;;;;;1.40;1.27;;;12.80;99.90;;;;;;5011782;28;20232;-74
2021/05/24 07:03:58;;;;;;;1.80;1.53;;;13.00;99.90;;;;;;5011576;28;20186;-74
2021/05/24 07:06:24;;;;;;;1.70;1.60;;;13.10;99.90;;;;;;5011573;28;20202;-74
2021/05/24 07:08:50;;;;;;;5.00;2.07;;;13.30;99.90;;;;;;5011789;28;20199;-73
2021/05/24 07:11:15;;;;;;;3.30;1.80;;;13.40;99.90;;;;;;5011778;28;20171;-74
2021/05/24 07:13:41;;;;;;;2.30;2.10;;;13.60;99.90;;;;;;5011701;28;20175;-74
2021/05/24 07:16:07;;;;;;;2.50;2.03;;;14.00;99.90;;;;;;5011761;28;20657;-74
2021/05/24 07:18:32;;;;;;;5.63;2.77;;;14.30;99.90;;;;;;5011951;28;20652;-74
2021/05/24 07:20:58;;;;;;;2.10;1.70;;;14.40;99.90;;;;;;4994277;28;20425;-73
2021/05/24 07:23:24;;;;;;;2.07;1.87;;;14.50;99.90;;;;;;5011603;28;20171;-74
2021/05/24 07:25:49;;;;;;;3.97;1.87;;;14.80;99.90;;;;;;5011526;28;20220;-72
2021/05/24 07:28:15;;;;;;;3.57;3.20;;;14.90;99.90;;;;;;5011794;28;20206;-74
2021/05/24 07:30:40;;;;;;;2.60;1.80;;;15.10;99.90;;;;;;5011620;28;20538;-74
2021/05/24 07:33:06;;;;;;;3.23;2.20;;;15.20;99.90;;;;;;5011874;28;20186;-75
2021/05/24 07:35:32;;;;;;;5.07;2.80;;;15.40;99.90;;;;;;5011826;28;20171;-74
2021/05/24 07:37:58;;;;;;;3.67;2.10;;;15.60;99.90;;;;;;5011925;28;20481;-73
2021/05/24 07:40:23;;;;;;;3.93;2.00;;;15.50;99.90;;;;;;5011307;28;20453;-74
2021/05/24 07:42:49;;;;;;;3.30;1.77;;;15.60;99.90;;;;;;5011458;28;20205;-74
2021/05/24 07:45:15;;;;;;;4.60;2.87;;;15.50;99.90;;;;;;5011283;28;20207;-75
2021/05/24 07:47:40;;;;;;;3.60;2.30;;;15.50;99.90;;;;;;5011346;28;20195;-74
2021/05/24 07:50:08;;;;;;;2.50;2.30;;;15.50;99.90;;;;;;5011548;28;20174;-74
2021/05/24 07:52:34;;;;;;;2.40;2.00;;;15.40;99.90;;;;;;4993628;28;20181;-74
2021/05/24 07:55:01;;;;;;;3.30;2.33;;;15.60;99.90;;;;;;5011576;28;20441;-74
2021/05/24 07:57:27;;;;;;;2.53;2.30;;;15.70;99.90;;;;;;5011581;28;20202;-73
2021/05/24 07:59:52;;;;;;;3.77;1.53;;;15.70;99.90;;;;;;5013241;28;20418;-73
2021/05/24 08:02:18;;;;;;;3.10;1.53;;;15.60;99.90;;;;;;5030871;28;20188;-72
2021/05/24 08:04:43;;;;;;;2.20;1.57;;;15.70;99.90;;;;;;5031355;28;20570;-73
2021/05/24 08:07:09;;;;;;;8.00;1.13;;;15.70;99.90;;;;;;5031217;28;20251;-74
2021/05/24 08:09:35;;;;;;;1.63;0.93;;;15.70;99.90;;;;;;5031386;28;20197;-73
2021/05/24 08:12:01;;;;;;;3.50;1.67;;;15.70;99.90;;;;;;5031248;28;20177;-73
2021/05/24 08:14:27;;;;;;;1.80;1.23;;;15.70;99.90;;;;;;5013679;28;20507;-73
2021/05/24 08:16:54;;;;;;;1.00;0.90;;;15.80;99.90;;;;;;5013433;28;20432;-73
2021/05/24 08:19:21;;;;;;;1.07;0.97;;;15.80;99.90;;;;;;5030709;28;20495;-73
2021/05/24 08:21:49;;;;;;;2.37;2.20;;;15.90;99.90;;;;;;5030994;28;20938;-74
2021/05/24 08:24:16;;;;;;;4.30;1.40;;;16.10;99.90;;;;;;5030568;28;20411;-73
2021/05/24 08:26:41;;;;;;;4.80;1.87;;;16.20;99.90;;;;;;5030749;28;20487;-73
2021/05/24 08:29:07;;;;;;;4.20;1.27;;;16.40;99.90;;;;;;5013036;28;20420;-75
2021/05/24 08:31:37;;;;;;;2.10;1.17;;;16.50;99.90;;;;;;5030716;28;20228;-74
2021/05/24 08:34:03;;;;;;;1.80;1.70;;;16.80;99.90;;;;;;5030482;28;20186;-73
2021/05/24 08:36:29;;;;;;;1.53;1.43;;;17.20;99.90;;;;;;5030706;28;20435;-73
2021/05/24 08:38:54;;;;;;;4.13;1.67;;;17.40;99.90;;;;;;5034290;28;20420;-73
2021/05/24 08:41:21;;;;;;;2.00;1.90;;;17.40;99.90;;;;;;5034255;28;20178;-73
2021/05/24 08:43:46;;;;;;;3.10;1.80;;;17.50;99.90;;;;;;5034701;28;20182;-73
2021/05/24 08:46:12;;;;;;;1.73;1.53;;;17.50;99.90;;;;;;5016147;28;20602;-72
2021/05/24 08:48:37;;;;;;;2.40;1.30;;;17.70;99.90;;;;;;5034153;28;20253;-73
2021/05/24 08:51:08;;;;;;;1.20;1.10;;;17.80;99.90;;;;;;5034342;28;20174;-73
2021/05/24 08:53:37;;;;;;;7.53;1.67;;;18.00;99.90;;;;;;5034063;28;20723;-73
2021/05/24 08:56:03;;;;;;;3.17;1.83;;;18.20;99.90;;;;;;5016219;28;20436;-73
2021/05/24 08:58:29;;;;;;;2.10;1.90;;;18.60;99.90;;;;;;5033941;28;20793;-72
2021/05/24 09:00:54;;;;;;;5.80;1.60;;;18.90;99.90;;;;;;5033963;28;20425;-73
2021/05/24 09:03:33;;;;;;;1.33;1.23;;;19.40;99.90;;;;;;5033929;28;20182;-73
2021/05/24 09:06:00;;;;;;;2.10;1.40;;;19.90;99.90;;;;;;5033878;28;20204;-73
2021/05/24 09:08:46;;;;;;;1.30;1.20;;;20.40;99.90;;;;;;5033958;28;20449;-73
2021/05/24 09:11:31;;;;;;;1.27;1.00;;;20.60;99.90;;;;;;5033360;28;20984;-76
2021/05/24 09:13:57;;;;;;;2.97;1.20;;;20.50;99.90;;;;;;5033582;28;20443;-73
2021/05/24 09:16:29;;;;;;;0.80;0.80;;;20.70;99.90;;;;;;5033350;28;20439;-73
2021/05/24 09:19:15;;;;;;;1.33;1.00;;;20.70;99.90;;;;;;5033648;28;20228;-73
2021/05/24 09:22:01;;;;;;;2.00;1.77;;;20.60;99.90;;;;;;5033418;28;20470;-72
2021/05/24 09:24:45;;;;;;;1.10;1.00;;;20.40;99.90;;;;;;5015681;28;20432;-73
2021/05/24 09:27:38;;;;;;;3.33;1.37;;;20.20;99.90;;;;;;5033596;28;20428;-72
2021/05/24 09:30:06;;;;;;;1.30;1.20;;;20.20;99.90;;;;;;5033408;28;20408;-72
2021/05/24 09:32:33;;;;;;;1.40;1.00;;;20.30;99.90;;;;;;5033393;28;20420;-73
2021/05/24 09:35:04;;;;;;;2.20;1.10;;;20.40;99.90;;;;;;5033314;28;20914;-73
2021/05/24 09:37:34;;;;;;;0.97;0.93;;;20.20;99.90;;;;;;5033234;28;20496;-73
2021/05/24 09:40:00;;;;;;;1.37;1.23;;;20.20;99.90;;;;;;5033373;28;20401;-73
2021/05/24 09:42:26;;;;;;;5.40;1.10;;;20.30;99.90;;;;;;5032950;28;20964;-73
2021/05/24 09:44:54;;;;;;;1.57;1.10;;;20.30;99.90;;;;;;5032984;28;20767;-73
2021/05/24 09:47:37;;;;;;;0.90;0.90;;;20.20;99.90;;;;;;5032808;28;20194;-73
2021/05/24 09:50:13;;;;;;;1.10;1.00;;;20.20;99.90;;;;;;5015306;28;20782;-72
2021/05/24 09:52:39;;;;;;;1.50;1.40;;;20.30;99.90;;;;;;5023623;28;20525;-73
2021/05/24 09:55:17;;;;;;;3.33;1.07;;;20.30;99.90;;;;;;4995461;28;20989;-73
2021/05/24 09:57:56;;;;;;;1.17;1.07;;;20.30;99.90;;;;;;5014428;28;20494;-73
2021/05/24 10:00:28;;;;;;;6.83;1.40;;;20.20;99.90;;;;;;5004165;28;20509;-72
2021/05/24 10:02:55;;;;;;;2.13;1.00;;;20.30;99.90;;;;;;5011880;28;20449;-72
2021/05/24 10:05:22;;;;;;;0.93;0.90;;;20.30;99.90;;;;;;5011454;28;20871;-73
2021/05/24 10:07:48;;;;;;;1.47;1.33;;;20.30;99.90;;;;;;5012898;28;20429;-73
2021/05/24 10:10:15;;;;;;;1.40;1.30;;;20.40;99.90;;;;;;5012806;28;20405;-72
2021/05/24 10:12:41;;;;;;;1.10;1.00;;;20.40;99.90;;;;;;5012628;28;20472;-72
2021/05/24 10:15:09;;;;;;;1.97;0.90;;;20.40;99.90;;;;;;5012769;28;20508;-72
2021/05/24 10:17:42;;;;;;;3.00;1.10;;;20.30;99.90;;;;;;5012704;28;20430;-73
2021/05/24 10:20:08;;;;;;;4.70;1.43;;;20.20;99.90;;;;;;5012921;28;21004;-71
2021/05/24 10:22:34;;;;;;;1.43;1.07;;;20.00;99.90;;;;;;5012455;28;20425;-73
2021/05/24 10:24:59;;;;;;;3.57;1.37;;;19.80;99.90;;;;;;5012481;28;21144;-72
2021/05/24 10:27:26;;;;;;;1.13;1.03;;;19.90;99.90;;;;;;5012401;28;20191;-72
2021/05/24 10:29:51;;;;;;;2.30;0.80;;;20.00;99.90;;;;;;5012457;28;20202;-72
2021/05/24 10:32:22;;;;;;;1.43;0.87;;;19.90;99.90;;;;;;5012213;28;20446;-72
2021/05/24 10:34:48;;;;;;;1.20;1.10;;;19.80;99.90;;;;;;5012083;28;20171;-72
2021/05/24 10:37:20;;;;;;;1.87;0.83;;;19.90;99.90;;;;;;5012157;28;20433;-72
2021/05/24 10:39:48;;;;;;;1.07;1.00;;;19.70;99.90;;;;;;5011227;28;20185;-72
2021/05/24 10:42:14;;;;;;;1.20;1.00;;;19.70;99.90;;;;;;5012544;28;20770;-71
2021/05/24 10:44:43;;;;;;;3.57;1.10;;;19.60;99.90;;;;;;5012006;28;20501;-73
2021/05/24 10:47:17;;;;;;;1.10;0.97;;;19.70;99.90;;;;;;5012241;28;20430;-72
2021/05/24 10:50:02;;;;;;;2.13;1.23;;;19.80;99.90;;;;;;5012136;28;20412;-74
2021/05/24 10:52:28;;;;;;;1.37;1.20;;;19.90;99.90;;;;;;5012551;28;20412;-72
2021/05/24 10:54:54;;;;;;;1.43;1.00;;;19.90;99.90;;;;;;5012023;28;20433;-73
2021/05/24 10:57:20;;;;;;;3.20;1.23;;;19.90;99.90;;;;;;5012021;28;20200;-72
2021/05/24 10:59:48;;;;;;;2.03;1.07;;;19.80;99.90;;;;;;5011290;28;20421;-71
2021/05/24 11:02:23;;;;;;;1.80;1.17;;;19.70;99.90;;;;;;5011916;28;20421;-72
2021/05/24 11:05:00;;;;;;;2.00;1.20;;;19.70;99.90;;;;;;5012006;28;20828;-74
2021/05/24 11:07:43;;;;;;;1.27;1.00;;;19.70;99.90;;;;;;5014435;28;20528;-73
2021/05/24 11:10:18;;;;;;;0.80;0.80;;;19.80;99.90;;;;;;5019555;28;20472;-72
2021/05/24 11:12:49;;;;;;;1.23;0.50;;;20.00;99.90;;;;;;5011810;28;20428;-73
2021/05/24 11:15:16;;;;;;;1.00;0.50;;;20.10;99.90;;;;;;5011287;28;20417;-75
2021/05/24 11:17:59;;;;;;;1.23;0.57;;;20.30;99.90;;;;;;5011595;28;20444;-75
2021/05/24 11:20:33;;;;;;;0.50;0.40;;;20.50;99.90;;;;;;5011301;28;20421;-73
2021/05/24 11:23:35;;;;;;;0.77;0.50;;;20.60;99.90;;;;;;5011661;28;20884;-74
2021/05/24 11:26:18;;;;;;;0.60;0.50;;;20.70;99.90;;;;;;5011014;28;20568;-74
2021/05/24 11:28:59;;;;;;;0.60;0.50;;;20.80;99.90;;;;;;5011463;28;20440;-74
2021/05/24 11:31:35;;;;;;;0.67;0.63;;;21.20;99.90;;;;;;5011318;28;20437;-75
2021/05/24 11:34:06;;;;;;;0.67;0.50;;;21.50;99.70;;;;;;5010202;28;20418;-75
2021/05/24 11:36:42;;;;;;;1.50;0.50;;;21.40;97.60;;;;;;5010233;28;20481;-74
2021/05/24 11:39:16;;;;;;;0.40;0.40;;;21.40;96.80;;;;;;5011477;28;20441;-75
2021/05/24 11:42:04;;;;;;;1.67;0.60;;;21.40;98.10;;;;;;5011337;28;20512;-75
2021/05/24 11:44:41;;;;;;;0.60;0.50;;;21.60;98.20;;;;;;5011154;28;20445;-75
2021/05/24 11:47:14;;;;;;;1.60;0.60;;;21.70;97.80;;;;;;4993655;28;20477;-75
2021/05/24 11:49:42;;;;;;;1.73;0.50;;;22.00;97.80;;;;;;5011517;28;20421;-76
2021/05/24 11:52:09;;;;;;;0.60;0.50;;;22.10;98.50;;;;;;5011328;28;20425;-75
2021/05/24 11:54:36;;;;;;;6.40;6.07;;;22.20;95.80;;;;;;5010886;28;20425;-75
2021/05/24 11:57:09;;;;;;;9.57;8.97;;;22.10;95.90;;;;;;5011429;28;21069;-75
2021/05/24 11:59:37;;;;;;;3.20;2.93;;;22.10;94.90;;;;;;5011307;28;20441;-75
2021/05/24 12:02:05;;;;;;;0.70;0.50;;;22.30;92.90;;;;;;5011247;28;20440;-75
2021/05/24 12:04:37;;;;;;;1.10;0.50;;;22.30;91.30;;;;;;5011200;28;20414;-75
2021/05/24 12:07:08;;;;;;;1.80;0.50;;;22.30;91.90;;;;;;5011174;28;20473;-75
2021/05/24 12:09:55;;;;;;;2.97;0.70;;;22.50;93.20;;;;;;5011028;28;20421;-75
2021/05/24 12:12:25;;;;;;;0.63;0.50;;;22.60;90.90;;;;;;5014079;28;20783;-75
2021/05/24 12:14:54;;;;;;;1.53;0.53;;;22.50;86.30;;;;;;5014772;28;20902;-74
2021/05/24 12:17:25;;;;;;;2.43;0.70;;;22.40;87.30;;;;;;5014662;28;20476;-75
2021/05/24 12:19:53;;;;;;;1.10;1.00;;;22.20;81.20;;;;;;5014842;28;20491;-75
2021/05/24 12:22:21;;;;;;;6.30;5.70;;;22.10;78.00;;;;;;5014605;28;20409;-74
2021/05/24 12:24:48;;;;;;;1.67;0.80;;;22.00;82.90;;;;;;5014452;28;20821;-75
2021/05/24 12:27:17;;;;;;;1.10;0.63;;;22.00;86.50;;;;;;5014582;28;20529;-75
2021/05/24 12:30:06;;;;;;;3.33;3.13;;;22.00;88.10;;;;;;5014615;28;20394;-73
2021/05/24 12:32:38;;;;;;;0.70;0.70;;;21.90;88.40;;;;;;5014814;28;21158;-72
2021/05/24 12:35:07;;;;;;;1.70;1.43;;;21.90;92.80;;;;;;4996828;28;20413;-73
2021/05/24 12:37:34;;;;;;;2.20;2.10;;;21.70;92.60;;;;;;5014295;28;20433;-73
2021/05/24 12:40:07;;;;;;;1.17;0.90;;;21.60;94.50;;;;;;5015348;28;20402;-73
2021/05/24 12:42:34;;;;;;;1.87;1.70;;;21.60;94.80;;;;;;5014451;28;20476;-73
2021/05/24 12:45:05;;;;;;;3.03;0.93;;;21.40;95.40;;;;;;4996471;28;20942;-75
2021/05/24 12:47:30;;;;;;;2.30;2.10;;;21.50;96.20;;;;;;5014218;28;20429;-75
2021/05/24 12:49:56;;;;;;;0.60;0.50;;;21.50;97.50;;;;;;5014334;28;20417;-75
2021/05/24 12:52:21;;;;;;;1.23;0.50;;;21.60;95.40;;;;;;5014138;28;20185;-75
2021/05/24 12:54:52;;;;;;;2.37;0.80;;;21.60;94.90;;;;;;5013915;28;20277;-75
2021/05/24 12:57:27;;;;;;;3.00;1.20;;;21.50;95.10;;;;;;5013841;28;20570;-73